Weather observations for the past three days for
Flamingo Airport
Imperial (Metric)
Date Time (ast) Wind (mph) Vis. (mi.) Weather Sky Cond. Temperature (ºF) Relative Humidity Wind Chill (°F) Heat Index (°F) Pressure Precipitation (in)
Air Dwpt 6 hour altimeter (in) sea level (mb) 1 hr 3 hr 6 hr
Max. Min.
31 15:55 E 16 0.00 A Few Clouds FEW021 89.6 75.2 63% 100 0 0.0
31 14:55 E 20 0.00 A Few Clouds FEW021 91.4 75.2 59% 103 0 0.0
31 13:55 E 20 0.00 A Few Clouds FEW020 89.6 75.2 63% 100 0 0.0
31 12:55 E 20 0.00 Partly Cloudy SCT019 91.4 77 63% 105 0 0.0
31 11:55 E 18 0.00 A Few Clouds FEW019 89.6 77 67% 103 0 0.0
31 10:55 E 21 0.00 A Few Clouds and Breezy FEW019 89.6 77 67% 103 0 0.0
31 09:55 E 20 0.00 A Few Clouds FEW018 89.6 78.8 71% 105 0 0.0
31 08:55 E 21 0.00 Light Showers Rain and Breezy FEW017TCU 87.8 78.8 75% 102 0 0.0
31 07:55 E 15 0.00 A Few Clouds FEW015TCU 84.2 77 79% 94 0 0.0
31 06:55 E 14 0.00 Light Showers Rain SCT016TCU 84.2 77 79% 94 0 0.0
31 05:55 E 13 0.00 NULL NULL 84.2 77 79% 94 0 0.0
31 04:55 E 15 0.00 NULL NULL 82.4 77 84% 91 0 0.0
31 03:55 E 14 0.00 NULL NULL 82.4 77 84% 91 0 0.0
31 02:55 E 15 0.00 NULL NULL 82.4 77 84% 91 0 0.0
31 01:55 E 15 0.00 NULL NULL 82.4 77 84% 91 0 0.0
31 00:55 E 13 0.00 NULL NULL 84.2 77 79% 94 0 0.0
30 23:55 E 14 0.00 NULL NULL 84.2 77 79% 94 0 0.0
30 22:55 E 14 0.00 NULL NULL 84.2 77 79% 94 0 0.0
30 21:55 E 14 0.00 NULL NULL 84.2 77 79% 94 0 0.0
30 20:55 E 15 0.00 Partly Cloudy SCT018 84.2 77 79% 94 0 0.0
30 19:55 E 17 0.00 A Few Clouds FEW018 84.2 77 79% 94 0 0.0
30 18:55 E 16 0.00 A Few Clouds FEW018 84.2 77 79% 94 0 0.0
30 17:55 E 18 0.00 A Few Clouds FEW019 86 77 75% 97 0 0.0
30 16:55 E 18 0.00 A Few Clouds FEW020 87.8 75.2 66% 98 0 0.0
30 15:55 E 20 0.00 Partly Cloudy FEW017TCU SCT021 89.6 77 67% 103 0 0.0
30 14:55 E 20 0.00 Partly Cloudy FEW017TCU SCT021 91.4 77 63% 105 0 0.0
30 13:55 E 20 0.00 Partly Cloudy FEW016TCU SCT020 89.6 75.2 63% 100 0 0.0
30 12:55 E 17 0.00 Partly Cloudy SCT022 SCT025 89.6 75.2 63% 100 0 0.0
30 11:55 E 17 0.00 Mostly Cloudy BKN022 89.6 75.2 63% 100 0 0.0
30 10:55 E 16 0.00 Mostly Cloudy BKN020 89.6 75.2 63% 100 0 0.0
30 09:55 E 13 0.00 A Few Clouds FEW021 89.6 75.2 63% 100 0 0.0
30 08:55 E 10 0.00 Partly Cloudy SCT018 87.8 77 70% 100 0 0.0
30 07:55 E 12 0.00 Partly Cloudy SCT016TCU 86 77 75% 97 0 0.0
30 06:55 E 8 0.00 A Few Clouds FEW016TCU 82.4 77 84% 91 0 0.0
30 05:55 E 8 0.00 NULL NULL 82.4 77 84% 91 0 0.0
30 04:55 E 13 0.00 NULL NULL 82.4 75.2 79% 89 0 0.0
30 03:55 E 13 0.00 NULL NULL 82.4 77 84% 91 0 0.0
30 02:55 E 14 0.00 NULL NULL 82.4 75.2 79% 89 0 0.0
30 01:55 E 15 0.00 NULL NULL 82.4 75.2 79% 89 0 0.0
30 00:55 E 15 0.00 NULL NULL 84.2 75.2 74% 92 0 0.0
29 23:55 E 15 0.00 NULL NULL 84.2 75.2 74% 92 0 0.0
29 22:55 E 17 0.00 NULL NULL 84.2 75.2 74% 92 0 0.0
29 21:55 E 16 0.00 NULL NULL 84.2 77 79% 94 0 0.0
29 20:55 E 17 0.00 A Few Clouds FEW018 84.2 77 79% 94 0 0.0
29 19:55 E 16 0.00 A Few Clouds FEW017 84.2 77 79% 94 0 0.0
29 18:55 E 18 0.00 Partly Cloudy FEW015 SCT019 84.2 77 79% 94 0 0.0
29 17:55 E 18 0.00 Partly Cloudy SCT019 86 77 75% 97 0 0.0
29 16:55 E 16 0.00 Partly Cloudy FEW017 SCT021 87.8 77 70% 100 0 0.0
29 15:55 E 15 0.00 Partly Cloudy FEW017 SCT021 87.8 77 70% 100 0 0.0
29 14:55 E 16 0.00 Partly Cloudy FEW017 SCT020 89.6 75.2 63% 100 0 0.0
29 13:55 E 16 0.00 Partly Cloudy SCT020 89.6 77 67% 103 0 0.0
29 12:55 E 16 0.00 Partly Cloudy SCT020 89.6 77 67% 103 0 0.0
29 11:55 SE 16 0.00 Mostly Cloudy BKN021 89.6 77 67% 103 0 0.0
29 10:55 E 15 0.00 Partly Cloudy FEW016 SCT020 89.6 77 67% 103 0 0.0
29 09:55 E 16 0.00 Mostly Cloudy BKN019 87.8 77 70% 100 0 0.0
29 08:55 E 15 0.00 Partly Cloudy SCT019 86 77 75% 97 0 0.0
29 07:55 E 14 0.00 Partly Cloudy SCT019 86 77 75% 97 0 0.0
29 06:55 E 12 0.00 NULL NULL 84.2 77 79% 94 0 0.0
29 05:55 E 10 0.00 NULL NULL 82.4 77 84% 91 0 0.0
29 04:55 E 9 0.00 NULL NULL 82.4 77 84% 91 0 0.0
29 03:55 E 9 0.00 NULL NULL 82.4 77 84% 91 0 0.0
29 02:55 E 10 0.00 NULL NULL 82.4 77 84% 91 0 0.0
29 01:55 E 13 0.00 NULL NULL 82.4 77 84% 91 0 0.0
29 00:55 E 15 0.00 NULL NULL 84.2 77 79% 94 0 0.0
28 23:55 E 10 0.00 NULL NULL 82.4 77 84% 91 0 0.0
28 22:55 E 15 0.00 NULL NULL 82.4 75.2 79% 89 0 0.0
28 21:55 E 15 0.00 NULL NULL 84.2 75.2 74% 92 0 0.0
28 20:55 E 16 0.00 A Few Clouds FEW016 82.4 77 84% 91 0 0.0
28 19:55 E 17 0.00 A Few Clouds FEW016 84.2 77 79% 94 0 0.0
28 18:55 E 16 0.00 Showers Rain FEW016TCU 84.2 77 79% 94 0 0.0
28 17:55 E 22 0.00 Partly Cloudy and Breezy SCT018TCU 86 77 75% 97 0 0.0
Date Time (ast) Wind (mph) Vis. (mi.) Weather Sky Cond. Air Dwpt Max. Min. Relative Humidity Wind Chill (°F) Heat Index (°F) altimeter (in) sea level (mb) 1 hr 3 hr 6 hr
6 hour
Temperature (ºF) Pressure Precipitation (in)